Hauptseite
METAR-TAF:

METAR-TAF

Flughäfen :

Chengdu, China

Flughafen Chengdu-Shuangliu

Breite: 30-40N, Länge: 104-01E, Höhe: 508 m

Beobachtung

Neuester Wetterbericht von vor 45 Minuten, um 04:00 UTC
Wind 4 kt aus Nord, variierte zwischen Nordwest und Nordost
Temperatur 16°C
Luftfeuchtigkeit 63%
Luftdruck 1024 hPa
Sichtweite 10 km oder mehr
keine Wolken unter 1500 m und keine Kumulonimbus oder Gewitterwolken

METAR: ZUUU 180400Z 01002MPS 320V050 CAVOK 16/09 Q1024 NOSIG

Zeit: 12:45 (04:45 UTC)

Prognose

Neuester Wetterbericht von vor 8 Stunden und 43 Minuten, um 20:02 UTC
Gültige Prognose vom 18 um 00 UTC bis 18 um 24 UTC
Wind 6 kt aus Nord/Nordwest
Sichtweite: 5000 m
Aufgelockert bewölkt in der Höhe von 4000 ft
feuchter Dunst
Zeitweise
vom 18 um 14 UTC bis 18 um 16 UTC
Leichtregen

TAF: ZUUU 172002Z 1800/1824 33003MPS 5000 BR SCT040 TX14/1807Z TN10/1822Z TEMPO 1814/1816 -RA

Wetterbeobachtungen und Prognosen von mehr als 4000 Flughäfen (METAR und TAF Bericht).

Die verfügbaren Stationen werden durch gelbe und rote Markierungen auf der Karte dargestellt.

Führen Sie die Maus auf sie, um den Namen der Station zu sehen.

Darauf klicken, um die Beobachtung von Wetterbeobachtungen und Prognosen zu sehen.

Um die Karte zu ändern : klicken Sie auf den grünen Tasten mit einem schwarzen Kreuz Zum Vergrößern, auf den grünen Button mit einem Gedankenstrich zu verkleinern, oder auf die grünen Pfeile für benachbarte Karten.


METAR-TAF: